Time;durP1;ratioP1;P1;durP2;ratioP2;P2;SDS_P1;SDS_P2;PMS_P1;PMS_P2;Temp;Humidity;BMP_temperature;BMP_pressure;BME280_temperature;BME280_humidity;BME280_pressure;Samples;Min_cycle;Max_cycle;Signal;HPM_P1;HPM_P2
2022/05/13 00:01:54;;;;;;;32.30;14.65;;;;;;;14.11;100.00;99482.27;1652484;84;21039;-69
2022/05/13 00:04:21;;;;;;;31.48;16.05;;;;;;;14.10;100.00;99481.45;1641733;86;21075;-68
2022/05/13 00:06:47;;;;;;;28.05;14.95;;;;;;;14.12;100.00;99490.20;1653237;85;21096;-69
2022/05/13 00:09:14;;;;;;;27.95;15.35;;;;;;;14.08;100.00;99485.62;1616556;87;21159;-68
2022/05/13 00:11:40;;;;;;;;;;;;;;;13.98;100.00;99484.43;1618923;87;21070;-70
2022/05/13 00:14:09;;;;;;;28.35;15.23;;;;;;;13.91;100.00;99491.11;1632225;85;20114;-70
2022/05/13 00:16:36;;;;;;;34.55;17.15;;;;;;;13.85;100.00;99488.77;1646982;85;21506;-68
2022/05/13 00:19:04;;;;;;;37.95;18.57;;;;;;;13.75;100.00;99494.38;1644419;86;21647;-69
2022/05/13 00:21:32;;;;;;;32.63;16.87;;;;;;;13.56;100.00;99480.74;1640044;85;21082;-69
2022/05/13 00:23:58;;;;;;;30.85;16.45;;;;;;;13.60;100.00;99494.64;1653020;85;21067;-70
2022/05/13 00:26:24;;;;;;;;;;;;;;;13.60;100.00;99494.09;1607097;87;21110;-70
2022/05/13 00:28:51;;;;;;;29.15;14.23;;;;;;;13.52;100.00;99499.40;1626921;86;20140;-70
2022/05/13 00:31:17;;;;;;;24.92;13.68;;;;;;;13.36;100.00;99500.17;1658257;83;21146;-70
2022/05/13 00:33:45;;;;;;;27.45;13.50;;;;;;;13.33;100.00;99507.59;1664754;83;20989;-68
2022/05/13 00:36:11;;;;;;;31.90;13.08;;;;;;;13.34;100.00;99508.68;1646360;85;21147;-69
2022/05/13 00:38:38;;;;;;;34.23;14.00;;;;;;;13.33;100.00;99512.52;1661854;84;21594;-69
2022/05/13 00:41:04;;;;;;;30.60;14.95;;;;;;;13.28;100.00;99511.23;1662761;83;21088;-69
2022/05/13 00:43:44;;;;;;;21.87;11.50;;;;;;;13.21;100.00;99518.17;1663051;83;21062;-69
2022/05/13 00:46:13;;;;;;;27.10;12.35;;;;;;;13.19;100.00;99523.92;1635905;85;21129;-69
2022/05/13 00:48:40;;;;;;;28.87;11.25;;;;;;;13.22;100.00;99523.33;1632020;86;21597;-69
2022/05/13 00:51:09;;;;;;;20.97;11.20;;;;;;;13.15;100.00;99525.61;1647619;85;21560;-69
2022/05/13 00:53:35;;;;;;;25.08;11.83;;;;;;;13.07;100.00;99526.80;1652613;85;21042;-70
2022/05/13 00:56:03;;;;;;;24.57;11.63;;;;;;;13.03;100.00;99523.02;1667841;83;21177;-70
2022/05/13 00:58:29;;;;;;;24.92;11.03;;;;;;;13.04;100.00;99529.55;1665167;83;21458;-69
2022/05/13 01:00:55;;;;;;;;;;;;;;;13.01;100.00;99532.05;1647594;84;21582;-69
2022/05/13 01:03:22;;;;;;;23.00;10.23;;;;;;;12.92;100.00;99525.89;1638964;85;20123;-69
2022/05/13 01:05:50;;;;;;;;;;;;;;;12.75;100.00;99531.56;1659972;83;21173;-69
2022/05/13 01:08:17;;;;;;;23.25;9.90;;;;;;;12.73;100.00;99531.02;1653469;84;20425;-69
2022/05/13 01:10:44;;;;;;;18.32;9.63;;;;;;;12.70;100.00;99533.79;1646578;86;21032;-69
2022/05/13 01:13:14;;;;;;;23.00;10.63;;;;;;;12.64;100.00;99536.33;1641799;86;21067;-69
2022/05/13 01:15:42;;;;;;;21.48;10.23;;;;;;;12.54;100.00;99539.72;1654279;85;21083;-70
2022/05/13 01:18:10;;;;;;;19.67;9.80;;;;;;;12.50;100.00;99537.30;1613319;88;21576;-70
2022/05/13 01:20:48;;;;;;;26.60;10.23;;;;;;;12.53;100.00;99540.81;1617866;88;21115;-69
2022/05/13 01:23:42;;;;;;;24.85;10.30;;;;;;;12.45;100.00;99543.61;1662944;84;21079;-69
2022/05/13 01:26:19;;;;;;;21.05;10.03;;;;;;;12.26;100.00;99542.16;1621231;85;21533;-69
2022/05/13 01:28:50;;;;;;;19.48;9.60;;;;;;;12.14;100.00;99543.09;1579853;88;21931;-69
2022/05/13 01:31:30;;;;;;;22.65;10.15;;;;;;;12.09;100.00;99546.41;1645668;85;21063;-70
2022/05/13 01:33:59;;;;;;;23.20;10.32;;;;;;;11.98;100.00;99542.95;1661889;83;21793;-70
2022/05/13 01:36:27;;;;;;;21.82;10.15;;;;;;;11.81;100.00;99547.45;1656153;84;21553;-71
2022/05/13 01:38:55;;;;;;;19.55;9.45;;;;;;;11.72;100.00;99541.53;1667230;84;21047;-70
2022/05/13 01:41:22;;;;;;;17.23;10.00;;;;;;;11.69;100.00;99546.16;1664667;84;21143;-71
2022/05/13 01:43:48;;;;;;;;;;;;;;;11.64;100.00;99546.19;1677381;84;21097;-69
2022/05/13 01:46:16;;;;;;;21.23;10.03;;;;;;;11.59;100.00;99546.20;1663844;84;20151;-68
2022/05/13 01:48:43;;;;;;;19.10;9.98;;;;;;;11.43;100.00;99542.78;1636293;85;21059;-68
2022/05/13 01:51:10;;;;;;;22.27;11.22;;;;;;;11.34;100.00;99552.63;1655068;85;21637;-68
2022/05/13 01:53:38;;;;;;;21.17;10.75;;;;;;;11.32;100.00;99550.20;1639076;86;21074;-68
2022/05/13 01:56:05;;;;;;;;;;;;;;;11.36;100.00;99557.27;1662344;84;21086;-69
2022/05/13 01:58:32;;;;;;;23.45;11.18;;;;;;;11.36;100.00;99562.17;1658085;83;20136;-69
2022/05/13 02:00:59;;;;;;;;;;;;;;;11.25;100.00;99559.23;1654641;84;21187;-68
2022/05/13 02:03:44;;;;;;;24.52;11.00;;;;;;;11.14;100.00;99557.64;1676032;84;20449;-68
2022/05/13 02:06:17;;;;;;;21.45;11.65;;;;;;;10.98;100.00;99561.55;1632740;86;21181;-68
2022/05/13 02:08:44;;;;;;;32.53;14.33;;;;;;;10.98;100.00;99567.78;1652894;84;21119;-69
2022/05/13 02:11:11;;;;;;;;;;;;;;;11.05;100.00;99568.87;1677512;84;21570;-70
2022/05/13 02:13:38;;;;;;;28.65;13.13;;;;;;;11.08;100.00;99571.03;1661690;84;20139;-69
2022/05/13 02:16:05;;;;;;;27.27;13.53;;;;;;;11.05;100.00;99577.04;1669696;85;21082;-69
2022/05/13 02:18:32;;;;;;;29.72;14.65;;;;;;;11.01;100.00;99580.59;1678318;84;21035;-69
2022/05/13 02:20:59;;;;;;;26.33;14.38;;;;;;;10.95;100.00;99586.05;1673742;83;21173;-69
2022/05/13 02:23:25;;;;;;;26.30;13.70;;;;;;;10.94;100.00;99583.61;1656599;84;21059;-69
2022/05/13 02:25:52;;;;;;;;;;;;;;;10.95;100.00;99586.05;1672745;84;21110;-69
2022/05/13 02:28:18;;;;;;;27.82;13.60;;;;;;;10.93;100.00;99590.14;1639547;85;20144;-70
2022/05/13 02:30:45;;;;;;;;;;;;;;;10.82;100.00;99585.28;1643630;85;21159;-69
2022/05/13 02:33:13;;;;;;;31.27;15.50;;;;;;;10.76;100.00;99588.30;1654576;85;20146;-69
2022/05/13 02:35:39;;;;;;;31.25;14.98;;;;;;;10.65;100.00;99585.32;1594069;87;21656;-68
2022/05/13 02:38:06;;;;;;;27.98;13.50;;;;;;;10.65;100.00;99590.77;1607389;85;21221;-69
2022/05/13 02:43:19;;;;;;;29.27;14.73;;;;;;;10.76;100.00;99591.84;1645634;85;21106;-68
2022/05/13 02:45:46;;;;;;;30.17;15.30;;;;;;;10.73;100.00;99592.94;1669690;84;21098;-68
2022/05/13 02:48:13;;;;;;;29.92;14.40;;;;;;;10.69;100.00;99590.48;1655774;84;21095;-68
2022/05/13 02:50:39;;;;;;;;;;;;;;;10.68;100.00;99592.94;1665137;85;21087;-69
2022/05/13 02:53:06;;;;;;;28.73;14.35;;;;;;;10.75;100.00;99592.09;1667247;84;20123;-68
2022/05/13 02:55:33;;;;;;;24.20;14.30;;;;;;;10.75;100.00;99596.19;1628092;86;21717;-68
2022/05/13 02:57:59;;;;;;;;;;;;;;;10.76;100.00;99597.83;1651612;83;21046;-69
2022/05/13 03:00:25;;;;;;;23.18;13.78;;;;;;;10.74;100.00;99598.09;1663883;85;20700;-69
2022/05/13 03:02:52;;;;;;;23.27;14.10;;;;;;;10.65;100.00;99601.11;1654756;83;21078;-68
2022/05/13 03:05:19;;;;;;;25.35;13.70;;;;;;;10.69;100.00;99604.10;1648894;85;21079;-68
2022/05/13 03:07:46;;;;;;;28.20;13.70;;;;;;;10.76;100.00;99604.09;1645163;85;21082;-69
2022/05/13 03:10:12;;;;;;;;;;;;;;;10.84;100.00;99604.08;1671832;83;21158;-68
2022/05/13 03:12:39;;;;;;;26.12;14.70;;;;;;;10.87;100.00;99610.33;1654714;84;20141;-68
2022/05/13 03:15:07;;;;;;;;;;;;;;;10.75;100.00;99607.08;1661131;84;21118;-69
2022/05/13 03:17:35;;;;;;;26.07;11.85;;;;;;;10.78;100.00;99616.87;1617540;87;20112;-69
2022/05/13 03:20:06;;;;;;;27.42;12.43;;;;;;;10.83;100.00;99620.13;1583531;87;21055;-69
2022/05/13 03:22:32;;;;;;;27.35;13.08;;;;;;;10.90;100.00;99620.12;1639894;85;21050;-69
2022/05/13 03:24:59;;;;;;;;;;;;;;;10.95;100.00;99627.44;1632395;86;21102;-69
2022/05/13 03:27:27;;;;;;;27.25;13.62;;;;;;;10.97;100.00;99628.00;1665094;83;20667;-69
2022/05/13 03:29:53;;;;;;;26.30;13.25;;;;;;;10.93;100.00;99632.36;1669114;84;21075;-69
2022/05/13 03:32:20;;;;;;;26.87;13.53;;;;;;;11.04;100.00;99639.41;1642948;86;21067;-69
2022/05/13 03:34:47;;;;;;;29.18;13.85;;;;;;;11.19;100.00;99635.28;1656783;85;21486;-69
2022/05/13 03:37:13;;;;;;;34.10;15.90;;;;;;;11.34;100.00;99635.20;1658698;83;21027;-69
2022/05/13 03:39:39;;;;;;;31.30;16.17;;;;;;;11.46;100.00;99628.89;1654010;84;21039;-69
2022/05/13 03:42:07;;;;;;;29.32;15.30;;;;;;;11.68;100.00;99632.59;1659243;83;21537;-69
2022/05/13 03:44:35;;;;;;;32.55;14.07;;;;;;;12.08;100.00;99639.72;1656914;85;21032;-69
2022/05/13 03:47:04;;;;;;;30.65;15.25;;;;;;;12.56;100.00;99639.89;1662716;84;21641;-68
2022/05/13 03:49:30;;;;;;;30.92;13.98;;;;;;;12.97;100.00;99642.48;1678304;85;21055;-69
2022/05/13 03:51:56;;;;;;;29.98;15.65;;;;;;;13.27;100.00;99631.80;1658911;85;21134;-68
2022/05/13 03:54:22;;;;;;;;;;;;;;;13.53;100.00;99633.13;1648269;86;21065;-68
2022/05/13 03:56:49;;;;;;;27.80;12.43;;;;;;;13.86;100.00;99630.72;1615856;86;20427;-69
2022/05/13 03:59:15;;;;;;;24.67;11.95;;;;;;;14.24;100.00;99625.25;1615098;87;21133;-69
2022/05/13 04:01:42;;;;;;;26.23;11.90;;;;;;;14.57;100.00;99619.22;1605248;87;21138;-69
2022/05/13 04:04:09;;;;;;;25.05;11.90;;;;;;;14.67;100.00;99606.16;1616803;86;21127;-68
2022/05/13 04:09:20;;;;;;;24.18;9.95;;;;;;;14.93;100.00;99611.98;1631566;85;20126;-70
2022/05/13 04:16:04;;;;;;;;;;;;;;;15.06;100.00;99615.29;1643001;85;21103;-70
2022/05/13 04:16:59;;;;;;;24.52;8.30;;;;;;;15.36;100.00;99606.46;1674479;83;21129;-69
2022/05/13 04:19:26;;;;;;;;;;;;;;;15.55;100.00;99598.14;1677439;84;21066;-69
2022/05/13 04:21:53;;;;;;;17.60;7.87;;;;;;;15.78;100.00;99611.34;1637329;84;20142;-69
2022/05/13 04:24:19;;;;;;;;;;;;;;;15.74;100.00;99604.28;1651769;85;21087;-69
2022/05/13 04:26:45;;;;;;;19.00;7.30;;;;;;;15.79;100.00;99600.07;1670735;83;20102;-69
2022/05/13 04:29:12;;;;;;;20.15;7.30;;;;;;;16.01;100.00;99607.53;1651333;85;21529;-69
2022/05/13 04:31:42;;;;;;;14.13;6.22;;;;;;;16.26;100.00;99601.40;1652426;83;21577;-69
2022/05/13 04:34:09;;;;;;;11.90;6.70;;;;;;;16.36;100.00;99590.73;1657560;84;21083;-69
2022/05/13 04:36:36;;;;;;;14.30;6.78;;;;;;;16.58;100.00;99605.84;1650933;83;21103;-69
2022/05/13 04:39:03;;;;;;;13.65;6.35;;;;;;;16.71;100.00;99606.91;1639665;84;21093;-69
2022/05/13 04:44:15;;;;;;;14.28;5.50;;;;;;;16.91;100.00;99596.16;1647755;85;21067;-68
2022/05/13 04:46:42;;;;;;;12.93;5.42;;;;;;;17.03;100.00;99598.89;1653993;85;21083;-68
2022/05/13 04:49:08;;;;;;;12.58;5.15;;;;;;;17.08;100.00;99601.48;1648894;85;21051;-72
2022/05/13 04:51:35;;;;;;;11.85;4.60;;;;;;;17.09;100.00;99601.73;1668391;85;21562;-72
2022/05/13 04:54:02;;;;;;;9.70;4.33;;;;;;;17.23;100.00;99610.69;1651302;84;21596;-70
2022/05/13 04:56:30;;;;;;;10.28;4.20;;;;;;;17.53;100.00;99609.81;1650643;84;21549;-71
2022/05/13 04:58:58;;;;;;;10.55;3.47;;;;;;;17.74;100.00;99605.91;1664381;85;21066;-71
2022/05/13 05:01:25;;;;;;;8.63;3.10;;;;;;;17.81;100.00;99601.55;1581850;88;21166;-70
2022/05/13 05:03:52;;;;;;;8.13;3.27;;;;;;;17.71;100.00;99603.22;1642459;85;21565;-72
2022/05/13 05:06:19;;;;;;;11.78;2.77;;;;;;;17.75;100.00;99604.76;1648403;85;21663;-71
2022/05/13 05:08:45;;;;;;;9.50;3.33;;;;;;;17.95;100.00;99601.39;1673712;85;21534;-72
2022/05/13 05:12:18;;;;;;;7.47;2.83;;;;;;;18.07;100.00;99600.73;1798395;78;22922;-58
2022/05/13 05:14:46;;;;;;;8.63;3.02;;;;;;;18.11;100.00;99600.33;1785710;80;21018;-59
2022/05/13 05:17:13;;;;;;;6.78;2.50;;;;;;;18.32;100.00;99597.14;1718495;81;21663;-59
2022/05/13 05:19:39;;;;;;;8.03;2.27;;;;;;;18.58;100.00;99599.34;1705559;83;21493;-59
2022/05/13 05:22:06;;;;;;;10.30;2.45;;;;;;;18.87;100.00;99597.23;1709160;82;21149;-59
2022/05/13 05:24:32;;;;;;;5.87;1.80;;;;;;;18.93;100.00;99589.57;1709298;83;21484;-59
2022/05/13 05:26:59;;;;;;;7.05;1.50;;;;;;;19.25;100.00;99593.89;1709807;83;21049;-59
2022/05/13 05:29:25;;;;;;;3.80;1.00;;;;;;;19.53;100.00;99597.58;1708126;84;21583;-59
2022/05/13 05:31:52;;;;;;;4.97;1.10;;;;;;;19.86;100.00;99601.27;1702159;83;21173;-59
2022/05/13 05:34:19;;;;;;;5.15;1.20;;;;;;;20.07;100.00;99598.50;1711534;83;21007;-58
2022/05/13 05:36:45;;;;;;;3.92;0.93;;;;;;;20.30;100.00;99597.83;1711734;82;21098;-59
2022/05/13 05:39:12;;;;;;;3.05;1.12;;;;;;;20.40;100.00;99591.66;1727448;83;21038;-59
2022/05/13 05:41:38;;;;;;;4.55;1.07;;;;;;;20.01;100.00;99592.38;1723332;82;21034;-59
2022/05/13 05:44:05;;;;;;;5.10;1.10;;;;;;;19.86;100.00;99584.70;1724811;81;21465;-60
2022/05/13 05:46:31;;;;;;;3.15;0.98;;;;;;;19.86;100.00;99587.45;1713450;82;21172;-59
2022/05/13 05:48:58;;;;;;;6.25;0.80;;;;;;;19.83;100.00;99595.85;1710562;83;21068;-59
2022/05/13 05:51:24;;;;;;;2.17;0.85;;;;;;;19.89;100.00;99603.36;1715922;82;21097;-59
2022/05/13 05:59:21;;;;;;;2.83;1.10;;;;;;;19.47;100.00;99627.34;1708313;83;20962;-58
2022/05/13 06:01:48;;;;;;;5.58;1.20;;;;;;;19.42;100.00;99630.84;1719078;82;21146;-59
2022/05/13 06:04:15;;;;;;;4.60;1.25;;;;;;;19.43;100.00;99639.38;1717881;83;21107;-59
2022/05/13 06:06:43;;;;;;;4.60;1.30;;;;;;;19.46;100.00;99643.66;1701544;83;21106;-58
2022/05/13 06:09:10;;;;;;;3.75;1.00;;;;;;;19.37;100.00;99637.36;1708869;83;21058;-59
2022/05/13 06:11:37;;;;;;;4.85;1.22;;;;;;;19.75;100.00;99642.85;1687643;83;21872;-57
2022/05/13 06:14:04;;;;;;;6.10;1.37;;;;;;;19.88;100.00;99645.92;1713651;81;21082;-56
2022/05/13 06:16:30;;;;;;;6.03;1.00;;;;;;;20.14;100.00;99640.22;1719461;81;21060;-57
2022/05/13 06:19:01;;;;;;;5.50;1.27;;;;;;;20.12;100.00;99630.88;1725197;82;21439;-58
2022/05/13 06:21:33;;;;;;;5.53;1.85;;;;;;;20.22;100.00;99632.44;1720876;81;21074;-57
2022/05/13 06:24:00;;;;;;;5.87;1.37;;;;;;;20.14;100.00;99633.31;1725364;82;21011;-58
2022/05/13 06:26:26;;;;;;;5.83;1.77;;;;;;;20.12;100.00;99639.76;1729326;81;21039;-58
2022/05/13 06:28:53;;;;;;;6.53;1.72;;;;;;;20.04;97.99;99638.67;1724552;81;21015;-58
2022/05/13 06:31:20;;;;;;;5.85;1.80;;;;;;;19.88;96.22;99652.83;1718914;82;21135;-58
2022/05/13 06:33:47;;;;;;;6.65;2.12;;;;;;;19.77;97.04;99639.17;1724294;83;21012;-57
2022/05/13 06:36:13;;;;;;;8.75;2.37;;;;;;;19.72;98.95;99651.25;1699623;83;21051;-57
2022/05/13 06:38:40;;;;;;;8.13;2.77;;;;;;;19.70;96.49;99647.98;1702783;83;21070;-57
2022/05/13 06:41:06;;;;;;;5.78;2.60;;;;;;;19.69;100.00;99649.72;1723128;81;21103;-57
2022/05/13 06:43:33;;;;;;;7.58;2.58;;;;;;;19.76;98.93;99642.53;1721952;82;21030;-57
2022/05/13 06:45:59;;;;;;;6.40;2.62;;;;;;;19.61;100.00;99647.81;1726778;81;21125;-57
2022/05/13 06:48:25;;;;;;;7.17;2.58;;;;;;;19.80;100.00;99642.67;1722438;82;21012;-57
2022/05/13 06:50:52;;;;;;;9.43;2.77;;;;;;;19.96;100.00;99642.30;1720655;82;21146;-57
2022/05/13 06:53:20;;;;;;;6.92;2.65;;;;;;;19.99;100.00;99643.01;1723842;81;21050;-57
2022/05/13 06:55:47;;;;;;;5.05;1.67;;;;;;;19.89;100.00;99643.41;1722080;82;21604;-57
2022/05/13 06:58:14;;;;;;;7.85;1.70;;;;;;;19.79;100.00;99645.19;1726004;81;21010;-57
2022/05/13 07:00:43;;;;;;;9.30;1.40;;;;;;;19.85;100.00;99642.45;1725657;82;21083;-57
2022/05/13 07:03:14;;;;;;;6.97;1.40;;;;;;;19.85;100.00;99631.41;1697759;83;20959;-59
2022/05/13 07:05:41;;;;;;;4.25;1.00;;;;;;;19.76;100.00;99644.48;1697966;83;21513;-58
2022/05/13 07:08:08;;;;;;;5.87;1.20;;;;;;;19.88;100.00;99639.02;1725468;82;21525;-58
2022/05/13 07:10:35;;;;;;;4.95;1.00;;;;;;;19.77;100.00;99636.41;1721104;81;21055;-58
2022/05/13 07:13:04;;;;;;;3.58;0.90;;;;;;;19.83;100.00;99648.34;1724366;81;21006;-57
2022/05/13 07:15:31;;;;;;;3.22;0.85;;;;;;;19.71;89.27;99643.28;1724992;82;21161;-58
2022/05/13 07:17:58;;;;;;;9.20;3.10;;;;;;;19.54;100.00;99644.20;1721795;81;21510;-59
2022/05/13 07:20:28;;;;;;;4.62;0.88;;;;;;;19.95;100.00;99646.77;1722020;82;21069;-57
2022/05/13 07:22:55;;;;;;;4.17;0.90;;;;;;;20.45;100.00;99653.64;1722765;81;21102;-56
2022/05/13 07:25:21;;;;;;;3.80;0.93;;;;;;;20.59;100.00;99641.14;1722093;81;21074;-57
2022/05/13 07:27:48;;;;;;;2.65;0.80;;;;;;;20.63;96.75;99648.19;1718528;82;21062;-57
2022/05/13 07:30:15;;;;;;;4.72;0.90;;;;;;;20.75;99.61;99640.75;1723779;81;21070;-58
2022/05/13 07:32:41;;;;;;;3.05;0.78;;;;;;;20.88;95.71;99633.84;1721707;83;21531;-58
2022/05/13 07:35:09;;;;;;;5.05;0.75;;;;;;;21.12;98.09;99650.53;1722770;81;20997;-58
2022/05/13 07:37:36;;;;;;;4.50;0.60;;;;;;;21.06;80.15;99651.31;1717947;81;21034;-58
2022/05/13 07:42:50;;;;;;;3.25;0.90;;;;;;;20.47;90.74;99656.32;1721649;82;21008;-58
2022/05/13 07:45:17;;;;;;;3.52;0.82;;;;;;;20.26;89.62;99663.19;1725996;81;21569;-58
2022/05/13 07:47:43;;;;;;;1.90;0.68;;;;;;;20.04;85.88;99653.88;1721994;81;21853;-57
2022/05/13 07:50:11;;;;;;;5.40;1.15;;;;;;;19.84;90.86;99655.45;1723749;81;21090;-58
2022/05/13 07:52:40;;;;;;;3.17;1.17;;;;;;;19.77;91.65;99657.13;1719520;81;21038;-58
2022/05/13 07:55:11;;;;;;;6.83;1.82;;;;;;;19.67;100.00;99652.80;1719312;82;21023;-58
2022/05/13 07:57:40;;;;;;;9.68;2.02;;;;;;;19.75;100.00;99655.28;1719323;82;21090;-57
2022/05/13 08:03:06;;;;;;;3.17;1.40;;;;;;;19.63;99.51;99667.03;1723775;82;21027;-58
2022/05/13 08:05:40;;;;;;;5.47;1.87;;;;;;;19.50;100.00;99664.52;1721787;82;21249;-59
2022/05/13 08:08:13;;;;;;;6.70;1.40;;;;;;;19.36;99.64;99657.24;1727004;81;21353;-59
2022/05/13 08:10:42;;;;;;;4.87;1.40;;;;;;;19.23;100.00;99665.19;1725889;81;21093;-59
2022/05/13 08:13:09;;;;;;;4.22;1.32;;;;;;;19.00;100.00;99669.30;1721569;81;21054;-59
2022/05/13 08:15:36;;;;;;;4.67;1.37;;;;;;;18.92;100.00;99661.84;1721605;81;21050;-59
2022/05/13 08:18:02;;;;;;;5.05;1.50;;;;;;;19.06;100.00;99652.02;1722124;81;21573;-58
2022/05/13 08:20:30;;;;;;;6.22;1.85;;;;;;;19.09;100.00;99657.69;1712419;81;21082;-59
2022/05/13 08:22:57;;;;;;;5.15;1.60;;;;;;;19.15;99.47;99659.69;1722050;81;21038;-58
2022/05/13 08:25:24;;;;;;;9.30;1.82;;;;;;;19.18;98.35;99657.64;1736246;82;21711;-59
2022/05/13 08:27:52;;;;;;;4.83;1.67;;;;;;;19.30;100.00;99655.82;1727602;81;21557;-60
2022/05/13 08:30:18;;;;;;;6.90;2.08;;;;;;;19.42;99.35;99655.69;1717963;81;21043;-58
2022/05/13 08:32:45;;;;;;;4.40;1.70;;;;;;;19.33;100.00;99649.63;1724906;82;21007;-58
2022/05/13 08:35:13;;;;;;;4.17;1.70;;;;;;;19.38;99.07;99649.42;1722494;82;21075;-59
2022/05/13 08:37:45;;;;;;;6.25;1.75;;;;;;;19.48;100.00;99657.15;1719832;81;21107;-60
2022/05/13 08:40:28;;;;;;;5.75;1.17;;;;;;;19.54;100.00;99653.86;1688221;83;21046;-60
2022/05/13 08:42:55;;;;;;;4.65;1.12;;;;;;;19.42;96.56;99662.03;1724119;81;21038;-59
2022/05/13 08:45:21;;;;;;;2.42;0.90;;;;;;;19.14;100.00;99651.97;1722409;81;21152;-59
2022/05/13 08:47:57;;;;;;;2.85;0.72;;;;;;;19.13;100.00;99666.11;1729201;81;21058;-60
2022/05/13 08:50:42;;;;;;;3.70;0.90;;;;;;;19.06;100.00;99655.56;1732962;81;21039;-59
2022/05/13 08:53:33;;;;;;;4.42;0.70;;;;;;;19.03;100.00;99656.22;1724032;81;21010;-60
2022/05/13 08:56:07;;;;;;;6.12;0.75;;;;;;;18.82;100.00;99654.75;1712892;82;21652;-60
2022/05/13 08:58:44;;;;;;;4.35;0.70;;;;;;;18.73;100.00;99645.70;1720960;81;21128;-60
2022/05/13 09:01:19;;;;;;;2.83;0.78;;;;;;;18.92;100.00;99638.41;1713292;81;21030;-59
2022/05/13 09:03:54;;;;;;;4.58;0.70;;;;;;;19.24;100.00;99641.95;1711474;83;21045;-57
2022/05/13 09:06:44;;;;;;;6.50;0.75;;;;;;;19.47;100.00;99625.97;1718980;81;21110;-59
2022/05/13 09:09:11;;;;;;;1.60;0.50;;;;;;;19.71;100.00;99622.56;1700099;81;20967;-60
2022/05/13 09:11:48;;;;;;;2.58;0.40;;;;;;;20.00;100.00;99620.34;1722551;81;21713;-60
2022/05/13 09:14:35;;;;;;;2.30;0.50;;;;;;;20.32;100.00;99624.58;1711487;84;20987;-58
2022/05/13 09:17:32;;;;;;;3.90;0.60;;;;;;;20.52;100.00;99622.09;1730023;81;21079;-59
2022/05/13 09:20:13;;;;;;;7.62;0.60;;;;;;;20.66;100.00;99632.29;1743154;80;21019;-59
2022/05/13 09:22:49;;;;;;;2.92;0.50;;;;;;;20.87;93.94;99631.66;1745705;81;21066;-59
2022/05/13 09:25:34;;;;;;;3.95;0.40;;;;;;;20.92;86.79;99630.06;1737019;81;21007;-59
2022/05/13 09:28:09;;;;;;;3.08;0.50;;;;;;;20.75;93.91;99628.30;1745384;81;21023;-60
2022/05/13 09:30:42;;;;;;;4.12;0.70;;;;;;;20.75;91.46;99631.64;1744570;81;21047;-59
2022/05/13 09:33:34;;;;;;;2.90;0.47;;;;;;;20.69;96.80;99624.12;1745794;82;21027;-59
2022/05/13 09:36:25;;;;;;;2.92;0.40;;;;;;;20.69;99.90;99627.48;1745066;81;21142;-58
2022/05/13 09:38:59;;;;;;;3.25;0.62;;;;;;;20.60;94.19;99612.34;1744946;81;21070;-59
2022/05/13 09:41:34;;;;;;;4.17;0.60;;;;;;;20.47;96.24;99616.80;1740893;81;21042;-58
2022/05/13 09:44:25;;;;;;;6.12;0.65;;;;;;;20.38;93.92;99614.67;1734291;81;21071;-59
2022/05/13 09:47:11;;;;;;;6.08;0.72;;;;;;;20.43;91.40;99615.86;1746364;81;21133;-58
2022/05/13 09:49:44;;;;;;;4.95;0.80;;;;;;;20.28;87.91;99616.72;1746240;81;21038;-59
2022/05/13 09:52:17;;;;;;;3.85;0.53;;;;;;;20.23;86.08;99616.07;1746693;81;21089;-58
2022/05/13 09:54:47;;;;;;;4.60;1.20;;;;;;;20.19;96.05;99603.50;1740565;81;21003;-58
2022/05/13 09:57:33;;;;;;;2.40;0.60;;;;;;;20.31;98.50;99602.22;1739494;81;21034;-58
2022/05/13 10:00:15;;;;;;;5.92;0.70;;;;;;;20.45;95.91;99605.25;1743576;81;20965;-59
2022/05/13 10:02:44;;;;;;;4.53;0.90;;;;;;;20.50;81.50;99604.48;1746393;81;21084;-59
2022/05/13 10:05:19;;;;;;;7.58;0.90;;;;;;;20.49;75.75;99604.81;1745338;81;21074;-60
2022/05/13 10:07:57;;;;;;;6.12;1.02;;;;;;;20.45;74.06;99596.96;1743252;81;21034;-58
2022/05/13 10:16:40;;;;;;;1.60;0.30;;;;;;;20.46;96.11;99593.05;1697677;84;21034;-59
2022/05/13 10:19:21;;;;;;;2.55;0.50;;;;;;;20.45;88.16;99589.48;1723103;82;20986;-60
2022/05/13 10:22:17;;;;;;;7.75;0.88;;;;;;;20.52;89.00;99591.69;1703675;81;21415;-60
2022/05/13 10:25:03;;;;;;;16.32;6.25;;;;;;;20.61;89.22;99591.84;1702210;84;21020;-60
2022/05/13 10:27:34;;;;;;;3.62;0.50;;;;;;;20.64;86.48;99594.50;1705451;82;21117;-61
2022/05/13 10:30:08;;;;;;;4.42;0.60;;;;;;;20.63;90.78;99587.34;1702260;83;20999;-59
2022/05/13 10:32:56;;;;;;;3.77;0.70;;;;;;;20.68;90.98;99581.03;1706891;82;21041;-59
2022/05/13 10:35:24;;;;;;;2.47;0.50;;;;;;;20.77;94.96;99582.30;1717660;82;21094;-59
2022/05/13 10:38:08;;;;;;;3.65;0.50;;;;;;;20.81;82.26;99577.70;1702191;84;21647;-58
2022/05/13 10:40:41;;;;;;;2.12;0.50;;;;;;;20.84;75.28;99574.25;1706092;82;21560;-59
2022/05/13 10:43:31;;;;;;;3.55;0.60;;;;;;;20.84;69.58;99565.95;1711330;82;21086;-59
2022/05/13 10:46:02;;;;;;;18.67;6.17;;;;;;;20.90;74.05;99569.31;1697107;82;21130;-59
2022/05/13 10:48:30;;;;;;;3.83;0.62;;;;;;;20.96;70.63;99559.05;1701511;83;21522;-59
2022/05/13 10:51:11;;;;;;;3.92;1.00;;;;;;;21.00;70.02;99570.24;1662955;84;21170;-60
2022/05/13 10:54:09;;;;;;;23.73;8.45;;;;;;;21.05;71.14;99565.84;1673210;84;21066;-59
2022/05/13 10:57:12;;;;;;;2.92;0.50;;;;;;;21.05;76.08;99558.36;1696413;82;21546;-59
2022/05/13 10:59:53;;;;;;;3.75;0.57;;;;;;;21.00;71.36;99557.79;1694366;83;21034;-60
2022/05/13 11:02:55;;;;;;;4.28;0.60;;;;;;;20.85;57.48;99560.66;1691332;83;21075;-59
2022/05/13 11:06:06;;;;;;;3.33;0.53;;;;;;;20.60;54.36;99554.84;1660145;84;21138;-59
2022/05/13 11:09:00;;;;;;;22.35;7.45;;;;;;;20.31;60.89;99552.46;1720446;82;21105;-60
2022/05/13 11:11:44;;;;;;;3.60;0.95;;;;;;;20.19;70.44;99548.23;1703639;81;21110;-59
2022/05/13 11:14:49;;;;;;;2.15;0.40;;;;;;;20.29;74.73;99542.33;1700903;83;21635;-60
2022/05/13 11:17:27;;;;;;;3.87;0.40;;;;;;;20.49;78.23;99545.36;1697376;82;21143;-60
2022/05/13 11:20:30;;;;;;;3.15;0.72;;;;;;;20.63;69.68;99536.17;1709345;81;21442;-59
2022/05/13 11:23:34;;;;;;;3.77;0.88;;;;;;;20.64;65.00;99535.84;1686993;83;21041;-59
2022/05/13 11:26:23;;;;;;;4.22;0.68;;;;;;;20.62;62.32;99522.11;1700789;82;21506;-59
2022/05/13 11:29:01;;;;;;;2.72;0.62;;;;;;;20.40;58.88;99517.02;1702057;82;21034;-60
2022/05/13 11:31:48;;;;;;;12.73;3.70;;;;;;;20.25;61.14;99522.58;1701710;82;21142;-59
2022/05/13 11:34:41;;;;;;;8.15;1.80;;;;;;;20.24;66.01;99527.30;1701222;84;21086;-60
2022/05/13 11:37:15;;;;;;;3.47;0.50;;;;;;;20.26;64.27;99518.68;1699447;83;21082;-58
2022/05/13 11:39:55;;;;;;;3.05;0.60;;;;;;;20.31;63.03;99516.53;1700880;83;21003;-59
2022/05/13 11:46:18;;;;;;;5.40;0.45;;;;;;;20.20;61.48;99505.63;1701730;84;21023;-59
2022/05/13 11:48:50;;;;;;;5.28;0.55;;;;;;;20.30;61.85;99502.46;1707169;82;21080;-58
2022/05/13 11:51:26;;;;;;;2.15;0.50;;;;;;;20.40;66.03;99501.81;1700961;83;21122;-59
2022/05/13 11:54:07;;;;;;;4.60;0.60;;;;;;;20.45;66.86;99502.38;1701758;84;21097;-58
2022/05/13 11:56:35;;;;;;;3.33;0.60;;;;;;;20.57;64.92;99509.33;1697591;83;21151;-58
2022/05/13 11:59:12;;;;;;;4.58;0.60;;;;;;;20.65;56.59;99503.47;1683122;82;21038;-58
2022/05/13 12:01:48;;;;;;;4.22;0.50;;;;;;;20.62;59.73;99506.90;1695288;82;21120;-59
2022/05/13 12:04:23;;;;;;;3.58;0.53;;;;;;;20.67;56.86;99499.77;1684726;84;21095;-59
2022/05/13 12:06:58;;;;;;;1.65;0.50;;;;;;;20.69;62.63;99512.09;1692161;83;21491;-59
2022/05/13 12:09:39;;;;;;;3.67;0.57;;;;;;;20.81;60.18;99504.39;1662651;86;21905;-58
2022/05/13 12:12:49;;;;;;;1.85;0.53;;;;;;;20.91;59.62;99499.78;1702403;82;21043;-59
2022/05/13 12:15:49;;;;;;;2.80;0.70;;;;;;;20.96;55.85;99498.19;1742192;80;21654;-58
2022/05/13 12:18:48;;;;;;;2.67;0.62;;;;;;;21.04;57.93;99493.11;1736171;81;21394;-59
2022/05/13 12:21:41;;;;;;;2.35;0.40;;;;;;;21.15;57.09;99489.33;1695662;82;21113;-59